Airfield :
LOGIN :

Register | Disclaimer

   EN    FR    IT 

 










Legend :    VFR   Marginal VFR   IFR   Intensive IFR   Very Intensive IFR
Visi :
Ceiling :
>= 8 km
>= 3000ft
5 to 8 km
1000 to 3000 ft
1500m to 5 km
500 to 1000 ft
800 to 1500m
200 to 500 ft
< 800m
< 200 ft
Symbols :   Thunderstorms  Fog  Heavy snow  Heavy precipitations  Wind > 20 kt
SIGMETs :     Misc.  Thunderstorms  Icing  Turbulence  Mountain Waves  Volcanic Ashes







- Airport Elevation : 14 ft
- IATA code : BRE


EDDW - Bremen Neuenland

CURRENT METAR :
  • 250720Z 28009KT 9999 FEW017 OVC030 12/07 Q1016 NOSIG

EXPIRED METARs :
  • 250650Z 29008KT 9999 FEW015 OVC030 11/08 Q1016 NOSIG
  • 250620Z 29008KT 250V310 9999 FEW013 OVC030 11/08 Q1016 NOSIG
  • 250550Z 26006KT 9999 FEW009 BKN030 11/09 Q1016 NOSIG
  • 250520Z 26007KT 9999 FEW008 BKN030 11/08 Q1015 NOSIG
  • 250450Z 26006KT 9999 FEW008 BKN025 11/08 Q1015 NOSIG

TAF TAF EDDW
Valid from the 25 at 06:00 until the 26 at 06:00 UTC


250500Z 2506/2606 28005KT 9999 BKN030
BECMG 2506/2508 29010KT
BECMG 2518/2520 VRB03KT
BECMG 2600/2602 20005KT
No reported NOTAMs for that airfield.



MET'MAP, your aeronautical weather chart ! - Copyright ORBIFLY December 2007 - Disclaimer

ORBIFLY MET'MAP TEAM :

Programming & Development : Alexandra Zaïnal
Concept & Development : Baudouin d'Aumeries
Co-Development & Prog : Marc-Olivier Méhu
Technical & hardware support : Manuel Goepfert

Contact : metmap@orbifly.com




SOURCES & CREDITS :

   NOAA